Playa Del Carmen, ROO, Mexico
Current Conditions -  °F | °C
As of 7:46 AM on Monday 24 Nov 2014 (Local Time) from MMCZ Reporting Station
Clear Clear  
Wind Chill: 77°   Ceiling: Unl
Heat Index: 78°   Visibility: 8mi
Dew Point: 75°   Wind: 7mph
Humidity: 94%   Direction: 130°SE
Pressure: 29.92"   Gusts: NA
Location:  20.62°N, 87.07°W
Report Text: MMCZ 241346Z 13006KT 8SM SKC 25/24 A2992 RMK RTS
Loading
Personal Weather Stations






























Interactive Weather Map New forecast layout! Learn more

10-Day Weather Forecast

Advertisements
Track Severe Weather on mobile